createdAt,value
2019-05-29T00:00:16.293Z,10.70
2019-05-29T00:02:42.385Z,10.60
2019-05-29T00:05:08.757Z,10.60
2019-05-29T00:07:34.948Z,10.60
2019-05-29T00:10:01.044Z,10.50
2019-05-29T00:12:27.231Z,10.60
2019-05-29T00:14:53.528Z,10.70
2019-05-29T00:17:19.703Z,10.60
2019-05-29T00:19:45.764Z,10.50
2019-05-29T00:22:12.371Z,10.60
2019-05-29T00:24:38.627Z,10.60
2019-05-29T00:27:05.412Z,10.70
2019-05-29T00:29:31.683Z,10.80
2019-05-29T00:31:57.750Z,10.80
2019-05-29T00:34:23.821Z,10.80
2019-05-29T00:36:49.916Z,10.90
2019-05-29T00:39:16.863Z,10.90
2019-05-29T00:41:43.283Z,10.90
2019-05-29T00:44:09.406Z,10.80
2019-05-29T00:46:35.525Z,10.80
2019-05-29T00:49:01.708Z,10.90
2019-05-29T00:51:27.891Z,11.00
2019-05-29T00:53:54.069Z,10.90
2019-05-29T00:56:20.136Z,11.00
2019-05-29T00:58:46.211Z,10.70
2019-05-29T01:01:13.307Z,10.60
2019-05-29T01:03:39.593Z,10.60
2019-05-29T01:06:05.688Z,10.50
2019-05-29T01:08:51.745Z,10.50
2019-05-29T01:11:18.887Z,10.40
2019-05-29T01:13:45.148Z,10.30
2019-05-29T01:16:11.325Z,10.20
2019-05-29T01:18:37.503Z,10.20
2019-05-29T01:21:03.876Z,10.10
2019-05-29T01:23:29.960Z,10.00
2019-05-29T01:25:56.048Z,10.00
2019-05-29T01:28:23.131Z,9.90
2019-05-29T01:30:51.558Z,9.80
2019-05-29T01:33:20.025Z,9.90
2019-05-29T01:35:45.342Z,10.00
2019-05-29T01:38:11.523Z,10.00
2019-05-29T01:40:37.583Z,10.10
2019-05-29T01:43:03.675Z,10.00
2019-05-29T01:45:29.741Z,9.90
2019-05-29T01:47:55.912Z,9.90
2019-05-29T01:50:22.033Z,10.00
2019-05-29T01:52:48.113Z,10.00
2019-05-29T01:55:15.611Z,9.90
2019-05-29T01:57:41.905Z,9.90
2019-05-29T02:00:08.767Z,9.80
2019-05-29T02:02:34.955Z,9.80
2019-05-29T02:05:01.129Z,9.80
2019-05-29T02:07:28.262Z,9.80
2019-05-29T02:09:54.460Z,9.90
2019-05-29T02:12:20.778Z,9.80
2019-05-29T02:14:47.025Z,9.80
2019-05-29T02:17:33.085Z,9.80
2019-05-29T02:19:59.174Z,9.80
2019-05-29T02:22:25.242Z,9.90
2019-05-29T02:24:51.333Z,9.80
2019-05-29T02:27:17.407Z,9.80
2019-05-29T02:29:43.598Z,9.70
2019-05-29T02:32:09.678Z,9.80
2019-05-29T02:34:35.754Z,9.80
2019-05-29T02:37:01.848Z,9.80
2019-05-29T02:39:29.366Z,9.90
2019-05-29T02:41:55.719Z,9.70
2019-05-29T02:44:23.347Z,9.50
2019-05-29T02:46:49.695Z,9.50
2019-05-29T02:49:16.179Z,9.40
2019-05-29T02:51:42.344Z,9.50
2019-05-29T02:54:08.432Z,9.60
2019-05-29T02:56:34.519Z,9.50
2019-05-29T02:59:00.688Z,9.50
2019-05-29T03:01:27.836Z,9.50
2019-05-29T03:03:54.481Z,9.60
2019-05-29T03:06:22.326Z,9.60
2019-05-29T03:08:48.937Z,9.50
2019-05-29T03:11:15.030Z,9.60
2019-05-29T03:13:41.412Z,9.60
2019-05-29T03:16:12.152Z,9.60
2019-05-29T03:18:35.866Z,9.80
2019-05-29T03:21:01.949Z,9.70
2019-05-29T03:23:28.975Z,9.80
2019-05-29T03:25:56.172Z,9.70
2019-05-29T03:28:22.425Z,9.60
2019-05-29T03:30:48.602Z,9.50
2019-05-29T03:33:14.778Z,9.40
2019-05-29T03:35:47.734Z,9.50
2019-05-29T03:38:08.837Z,9.60
2019-05-29T03:40:35.274Z,9.60
2019-05-29T03:43:01.503Z,9.60
2019-05-29T03:45:28.934Z,9.70
2019-05-29T03:47:55.662Z,9.70
2019-05-29T03:50:21.783Z,9.70
2019-05-29T03:52:47.856Z,9.60
2019-05-29T03:55:15.849Z,9.60
2019-05-29T03:57:41.954Z,9.60
2019-05-29T04:00:08.740Z,9.60
2019-05-29T04:02:35.554Z,9.50
2019-05-29T04:05:06.471Z,9.50
2019-05-29T04:07:37.967Z,9.50
2019-05-29T04:10:06.292Z,9.50
2019-05-29T04:12:33.477Z,9.40
2019-05-29T04:14:59.664Z,9.50
2019-05-29T04:17:27.313Z,9.60
2019-05-29T04:19:54.389Z,9.50
2019-05-29T04:22:24.258Z,9.60
2019-05-29T04:24:52.242Z,9.60
2019-05-29T04:27:21.846Z,9.70
2019-05-29T04:29:48.208Z,9.70
2019-05-29T04:32:14.280Z,9.60
2019-05-29T04:34:40.371Z,9.60
2019-05-29T04:37:07.386Z,9.60
2019-05-29T04:39:34.491Z,9.60
2019-05-29T04:42:00.679Z,9.70
2019-05-29T04:44:26.763Z,9.60
2019-05-29T04:47:09.273Z,9.80
2019-05-29T04:49:20.976Z,9.80
2019-05-29T04:51:47.039Z,9.90
2019-05-29T04:54:13.120Z,9.80
2019-05-29T04:56:39.256Z,9.90
2019-05-29T04:59:05.463Z,10.10
2019-05-29T05:01:31.535Z,10.20
2019-05-29T05:03:57.624Z,10.20
2019-05-29T05:06:23.691Z,10.30
2019-05-29T05:08:49.804Z,10.30
2019-05-29T05:11:16.168Z,10.30
2019-05-29T05:13:42.264Z,10.30
2019-05-29T05:16:08.438Z,10.50
2019-05-29T05:18:34.527Z,10.50
2019-05-29T05:21:00.621Z,10.60
2019-05-29T05:23:26.695Z,10.50
2019-05-29T05:25:52.787Z,10.60
2019-05-29T05:28:18.853Z,10.50
2019-05-29T05:30:44.932Z,10.70
2019-05-29T05:33:11.012Z,10.90
2019-05-29T05:35:37.112Z,11.00
2019-05-29T05:38:03.296Z,11.10
2019-05-29T05:40:30.659Z,11.20
2019-05-29T05:42:56.952Z,11.40
2019-05-29T05:45:23.035Z,11.40
2019-05-29T05:47:57.007Z,11.40
2019-05-29T05:50:17.810Z,11.20
2019-05-29T05:52:43.867Z,11.10
2019-05-29T05:55:11.300Z,11.10
2019-05-29T05:57:37.753Z,11.10
2019-05-29T06:00:09.183Z,11.40
2019-05-29T06:02:35.928Z,11.30
2019-05-29T06:05:04.025Z,11.40
2019-05-29T06:07:30.106Z,11.50
2019-05-29T06:09:56.212Z,11.40
2019-05-29T06:12:22.386Z,11.50
2019-05-29T06:14:48.454Z,11.60
2019-05-29T06:17:14.527Z,11.60
2019-05-29T06:19:41.166Z,11.70
2019-05-29T06:22:07.502Z,11.80
2019-05-29T06:24:34.949Z,12.20
2019-05-29T06:27:01.272Z,12.30
2019-05-29T06:29:27.437Z,12.40
2019-05-29T06:31:53.520Z,12.50
2019-05-29T06:34:19.605Z,12.30
2019-05-29T06:36:48.113Z,12.20
2019-05-29T06:39:13.759Z,12.40
2019-05-29T06:41:40.174Z,12.70
2019-05-29T06:44:06.436Z,12.70
2019-05-29T06:46:34.204Z,12.70
2019-05-29T06:49:01.106Z,12.70
2019-05-29T06:51:27.505Z,13.00
2019-05-29T06:53:53.668Z,13.10
2019-05-29T06:56:19.741Z,13.10
2019-05-29T06:58:45.841Z,12.90
2019-05-29T07:01:11.938Z,13.00
2019-05-29T07:03:39.579Z,12.90
2019-05-29T07:06:05.982Z,13.00
2019-05-29T07:08:39.083Z,13.30
2019-05-29T07:11:00.093Z,13.80
2019-05-29T07:13:26.182Z,13.90
2019-05-29T07:15:52.362Z,13.60
2019-05-29T07:18:18.439Z,13.30
2019-05-29T07:20:44.893Z,13.10
2019-05-29T07:23:11.213Z,13.10
2019-05-29T07:25:37.281Z,13.30
2019-05-29T07:28:03.467Z,13.40
2019-05-29T07:30:29.740Z,13.70
2019-05-29T07:32:58.728Z,13.60
2019-05-29T07:35:23.803Z,13.70
2019-05-29T07:37:49.893Z,13.60
2019-05-29T07:40:18.172Z,13.80
2019-05-29T07:42:49.598Z,14.00
2019-05-29T07:45:12.443Z,14.30
2019-05-29T07:47:38.518Z,14.10
2019-05-29T07:50:05.588Z,13.70
2019-05-29T07:52:31.678Z,13.30
2019-05-29T07:54:57.849Z,13.20
2019-05-29T07:57:23.927Z,13.50
2019-05-29T07:59:50.001Z,13.80
2019-05-29T08:02:16.096Z,14.00
2019-05-29T08:04:43.028Z,14.50
2019-05-29T08:07:09.344Z,14.50
2019-05-29T08:09:35.444Z,14.10
2019-05-29T08:12:01.637Z,14.10
2019-05-29T08:14:27.808Z,13.70
2019-05-29T08:16:53.885Z,13.50
2019-05-29T08:19:19.943Z,13.70
2019-05-29T08:21:46.516Z,14.20
2019-05-29T08:24:12.717Z,14.60
2019-05-29T08:26:38.813Z,14.80
2019-05-29T08:29:04.894Z,14.70
2019-05-29T08:31:30.957Z,14.60
2019-05-29T08:33:57.046Z,14.80
2019-05-29T08:36:23.116Z,14.60
2019-05-29T08:38:49.368Z,14.80
2019-05-29T08:41:15.579Z,15.20
2019-05-29T08:43:42.504Z,15.30
2019-05-29T08:46:08.761Z,15.40
2019-05-29T08:48:34.832Z,15.60
2019-05-29T08:51:00.920Z,15.70
2019-05-29T08:53:48.642Z,15.00
2019-05-29T08:56:14.886Z,15.00
2019-05-29T08:58:42.783Z,15.30
2019-05-29T09:01:08.995Z,15.70
2019-05-29T09:03:35.061Z,15.60
2019-05-29T09:06:08.369Z,15.30
2019-05-29T09:08:29.121Z,15.50
2019-05-29T09:10:55.199Z,15.80
2019-05-29T09:13:21.300Z,16.20
2019-05-29T09:15:47.366Z,16.60
2019-05-29T09:18:13.436Z,16.70
2019-05-29T09:21:00.856Z,16.60
2019-05-29T09:23:07.510Z,16.70
2019-05-29T09:25:33.603Z,16.90
2019-05-29T09:27:59.679Z,17.00
2019-05-29T09:30:25.864Z,17.10
2019-05-29T09:32:53.133Z,17.60
2019-05-29T09:35:21.414Z,17.90
2019-05-29T09:37:47.629Z,18.10
2019-05-29T09:40:19.086Z,17.80
2019-05-29T09:42:45.465Z,17.70
2019-05-29T09:45:11.947Z,17.90
2019-05-29T09:47:38.024Z,17.80
2019-05-29T09:50:05.714Z,17.40
2019-05-29T09:52:31.793Z,16.70
2019-05-29T09:54:58.236Z,15.90
2019-05-29T09:57:24.574Z,15.30
2019-05-29T09:59:50.637Z,15.20
2019-05-29T10:02:16.735Z,15.20
2019-05-29T10:04:42.812Z,15.30
2019-05-29T10:07:08.883Z,15.30
2019-05-29T10:09:34.974Z,15.80
2019-05-29T10:12:04.110Z,16.40
2019-05-29T10:14:29.020Z,17.00
2019-05-29T10:16:58.220Z,17.30
2019-05-29T10:19:23.060Z,17.60
2019-05-29T10:21:49.152Z,18.10
2019-05-29T10:24:15.219Z,18.20
2019-05-29T10:26:41.310Z,18.20
2019-05-29T10:29:09.636Z,18.10
2019-05-29T10:31:35.460Z,17.60
2019-05-29T10:34:01.562Z,17.40
2019-05-29T10:36:27.637Z,16.90
2019-05-29T10:38:53.795Z,16.60
2019-05-29T10:41:19.969Z,16.30
2019-05-29T10:43:47.067Z,16.30
2019-05-29T10:46:13.354Z,16.60
2019-05-29T10:48:39.518Z,16.80
2019-05-29T10:51:05.613Z,17.10
2019-05-29T10:53:31.693Z,17.40
2019-05-29T10:55:57.887Z,17.70
2019-05-29T10:58:23.984Z,17.60
2019-05-29T11:00:51.242Z,17.90
2019-05-29T11:03:17.569Z,18.20
2019-05-29T11:05:43.857Z,18.60
2019-05-29T11:08:09.931Z,18.70
2019-05-29T11:10:36.012Z,18.00
2019-05-29T11:13:02.206Z,17.20
2019-05-29T11:15:28.480Z,16.90
2019-05-29T11:17:55.298Z,16.70
2019-05-29T11:20:21.969Z,16.70
2019-05-29T11:22:48.127Z,16.70
2019-05-29T11:25:22.566Z,16.70
2019-05-29T11:27:42.496Z,16.70
2019-05-29T11:30:09.260Z,16.50
2019-05-29T11:32:35.335Z,16.30
2019-05-29T11:35:02.360Z,16.20
2019-05-29T11:37:28.638Z,15.60
2019-05-29T11:39:54.922Z,15.30
2019-05-29T11:42:27.605Z,15.20
2019-05-29T11:44:49.209Z,15.40
2019-05-29T11:47:15.277Z,15.40
2019-05-29T11:49:41.371Z,15.50
2019-05-29T11:52:23.327Z,15.60
2019-05-29T11:54:35.426Z,15.50
2019-05-29T11:57:01.525Z,15.50
2019-05-29T11:59:27.767Z,15.60
2019-05-29T12:01:55.373Z,15.90
2019-05-29T12:04:26.220Z,16.30
2019-05-29T12:06:51.074Z,16.60
2019-05-29T12:09:31.369Z,16.60
2019-05-29T12:11:45.411Z,16.70
2019-05-29T12:14:11.494Z,17.20
2019-05-29T12:16:37.663Z,17.70
2019-05-29T12:19:03.844Z,18.20
2019-05-29T12:21:29.930Z,18.70
2019-05-29T12:23:56.232Z,19.20
2019-05-29T12:26:23.341Z,19.40
2019-05-29T12:28:49.664Z,19.60
2019-05-29T12:31:15.734Z,19.80
2019-05-29T12:33:41.815Z,19.80
2019-05-29T12:36:08.109Z,19.80
2019-05-29T12:38:34.184Z,19.70
2019-05-29T12:41:01.648Z,19.70
2019-05-29T12:43:28.331Z,19.40
2019-05-29T12:45:55.652Z,19.20
2019-05-29T12:48:21.931Z,19.30
2019-05-29T12:50:48.352Z,19.20
2019-05-29T12:53:29.038Z,19.00
2019-05-29T12:55:42.489Z,18.80
2019-05-29T12:58:09.443Z,18.60
2019-05-29T13:00:35.529Z,18.50
2019-05-29T13:03:03.108Z,18.40
2019-05-29T13:05:29.395Z,18.10
2019-05-29T13:07:56.783Z,18.20
2019-05-29T13:10:30.591Z,18.30
2019-05-29T13:12:52.149Z,18.30
2019-05-29T13:15:18.709Z,18.60
2019-05-29T13:17:44.876Z,18.60
2019-05-29T13:20:21.146Z,18.50
2019-05-29T13:22:41.176Z,18.40
2019-05-29T13:25:12.059Z,18.40
2019-05-29T13:27:36.768Z,17.90
2019-05-29T13:30:08.466Z,17.20
2019-05-29T13:32:34.653Z,16.70
2019-05-29T13:35:02.131Z,16.30
2019-05-29T13:37:28.411Z,15.90
2019-05-29T13:39:54.486Z,15.70
2019-05-29T13:42:20.672Z,15.50
2019-05-29T13:44:46.768Z,15.50
2019-05-29T13:47:12.933Z,15.30
2019-05-29T13:49:39.131Z,15.10
2019-05-29T13:52:10.033Z,15.00
2019-05-29T13:54:33.194Z,14.80
2019-05-29T13:57:00.789Z,14.60
2019-05-29T13:59:27.372Z,14.60
2019-05-29T14:01:53.466Z,14.60
2019-05-29T14:04:19.530Z,14.90
2019-05-29T14:06:45.608Z,15.10
2019-05-29T14:09:11.692Z,15.80
2019-05-29T14:11:37.968Z,16.50
2019-05-29T14:14:06.834Z,17.00
2019-05-29T14:16:32.141Z,17.90
2019-05-29T14:18:58.384Z,18.80
2019-05-29T14:21:24.519Z,19.30
2019-05-29T14:23:50.608Z,19.60
2019-05-29T14:26:16.776Z,19.90
2019-05-29T14:28:43.149Z,20.00
2019-05-29T14:31:10.018Z,19.70
2019-05-29T14:33:36.304Z,19.30
2019-05-29T14:36:03.401Z,18.60
2019-05-29T14:38:29.852Z,18.10
2019-05-29T14:40:55.944Z,17.40
2019-05-29T14:43:22.008Z,16.90
2019-05-29T14:45:48.103Z,16.10
2019-05-29T14:48:14.179Z,15.60
2019-05-29T14:50:40.277Z,15.40
2019-05-29T14:53:07.206Z,15.10
2019-05-29T14:55:33.749Z,15.20
2019-05-29T14:57:59.927Z,15.30
2019-05-29T15:00:26.160Z,15.50
2019-05-29T15:02:52.957Z,15.60
2019-05-29T15:05:19.725Z,15.50
2019-05-29T15:07:45.798Z,15.80
2019-05-29T15:10:24.031Z,16.00
2019-05-29T15:12:40.377Z,16.10
2019-05-29T15:15:08.864Z,16.30
2019-05-29T15:17:35.240Z,16.30
2019-05-29T15:20:02.064Z,16.30
2019-05-29T15:22:28.340Z,16.20
2019-05-29T15:25:04.373Z,16.40
2019-05-29T15:27:22.520Z,16.30
2019-05-29T15:29:48.608Z,16.30
2019-05-29T15:32:14.718Z,16.10
2019-05-29T15:34:40.869Z,16.00
2019-05-29T15:37:10.618Z,15.70
2019-05-29T15:39:34.937Z,15.60
2019-05-29T15:42:01.005Z,15.60
2019-05-29T15:44:27.172Z,15.50
2019-05-29T15:46:53.289Z,15.70
2019-05-29T15:49:19.452Z,15.70
2019-05-29T15:51:45.527Z,15.70
2019-05-29T15:54:11.612Z,15.80
2019-05-29T15:56:37.708Z,15.90
2019-05-29T15:59:04.128Z,15.80
2019-05-29T16:01:30.194Z,15.70
2019-05-29T16:03:56.260Z,15.70
2019-05-29T16:06:22.356Z,15.50
2019-05-29T16:08:48.420Z,15.50
2019-05-29T16:11:14.679Z,15.30
2019-05-29T16:13:40.887Z,15.30
2019-05-29T16:16:06.976Z,15.20
2019-05-29T16:18:33.167Z,15.40
2019-05-29T16:20:59.240Z,15.60
2019-05-29T16:23:34.748Z,15.60
2019-05-29T16:25:53.291Z,15.50
2019-05-29T16:28:19.467Z,15.00
2019-05-29T16:30:45.564Z,14.80
2019-05-29T16:33:12.847Z,14.70
2019-05-29T16:35:39.122Z,14.60
2019-05-29T16:38:05.299Z,14.60
2019-05-29T16:40:31.369Z,14.60
2019-05-29T16:42:57.492Z,14.40
2019-05-29T16:45:23.629Z,14.50
2019-05-29T16:47:49.677Z,14.70
2019-05-29T16:50:17.922Z,14.70
2019-05-29T16:52:45.355Z,14.70
2019-05-29T16:55:12.939Z,14.50
2019-05-29T16:57:39.183Z,14.40
2019-05-29T17:00:07.377Z,14.30
2019-05-29T17:02:53.351Z,14.00
2019-05-29T17:05:20.522Z,14.50
2019-05-29T17:07:47.165Z,13.40
2019-05-29T17:10:14.302Z,13.30
2019-05-29T17:12:40.784Z,13.10
2019-05-29T17:15:09.444Z,13.00
2019-05-29T17:17:35.696Z,13.10
2019-05-29T17:20:04.979Z,12.90
2019-05-29T17:22:31.059Z,12.90
2019-05-29T17:24:57.117Z,12.70
2019-05-29T17:27:23.295Z,12.60
2019-05-29T17:29:49.358Z,12.60
2019-05-29T17:32:16.727Z,12.70
2019-05-29T17:34:43.171Z,12.60
2019-05-29T17:37:09.390Z,12.50
2019-05-29T17:39:35.531Z,12.50
2019-05-29T17:42:01.595Z,12.50
2019-05-29T17:44:27.784Z,12.50
2019-05-29T17:46:53.861Z,12.50
2019-05-29T17:49:22.500Z,12.60
2019-05-29T17:51:47.912Z,12.60
2019-05-29T17:54:13.986Z,12.60
2019-05-29T17:56:40.067Z,12.70
2019-05-29T17:59:06.154Z,12.80
2019-05-29T18:01:32.236Z,12.70
2019-05-29T18:03:58.328Z,12.80
2019-05-29T18:06:24.601Z,12.80
2019-05-29T18:08:50.832Z,12.80
2019-05-29T18:11:16.985Z,12.80
2019-05-29T18:13:43.190Z,12.80
2019-05-29T18:16:09.372Z,12.80
2019-05-29T18:18:35.432Z,12.70
2019-05-29T18:21:01.519Z,12.60
2019-05-29T18:23:28.218Z,12.60
2019-05-29T18:25:54.595Z,12.60
2019-05-29T18:28:21.914Z,12.60
2019-05-29T18:30:48.227Z,12.60
2019-05-29T18:33:14.399Z,12.60
2019-05-29T18:35:40.503Z,12.50
2019-05-29T18:38:06.657Z,12.30
2019-05-29T18:40:32.753Z,12.20
2019-05-29T18:42:58.845Z,12.30
2019-05-29T18:45:26.266Z,12.20
2019-05-29T18:47:53.110Z,12.10
2019-05-29T18:50:19.692Z,12.10
2019-05-29T18:52:45.832Z,12.10
2019-05-29T18:55:12.535Z,12.10
2019-05-29T18:57:38.692Z,11.80
2019-05-29T19:00:22.129Z,11.70
2019-05-29T19:02:49.373Z,11.40
2019-05-29T19:05:15.663Z,11.50
2019-05-29T19:07:41.735Z,11.50
2019-05-29T19:10:09.814Z,11.60
2019-05-29T19:12:35.903Z,11.70
2019-05-29T19:15:04.069Z,11.50
2019-05-29T19:17:30.158Z,11.60
2019-05-29T19:19:56.221Z,11.60
2019-05-29T19:22:22.365Z,11.60
2019-05-29T19:24:48.764Z,11.60
2019-05-29T19:27:30.097Z,11.60
2019-05-29T19:29:42.827Z,11.70
2019-05-29T19:32:08.908Z,11.80
2019-05-29T19:34:35.009Z,11.70
2019-05-29T19:37:01.184Z,11.70
2019-05-29T19:39:28.015Z,11.60
2019-05-29T19:41:54.234Z,11.30
2019-05-29T19:44:20.300Z,11.20
2019-05-29T19:46:53.472Z,11.20
2019-05-29T19:49:14.371Z,11.30
2019-05-29T19:51:40.443Z,11.40
2019-05-29T19:54:06.532Z,11.40
2019-05-29T19:56:33.638Z,11.50
2019-05-29T19:59:00.072Z,11.60
2019-05-29T20:01:32.524Z,11.60
2019-05-29T20:03:54.140Z,11.50
2019-05-29T20:06:20.335Z,11.50
2019-05-29T20:08:46.398Z,11.40
2019-05-29T20:11:12.480Z,11.30
2019-05-29T20:13:38.628Z,11.10
2019-05-29T20:16:04.748Z,11.10
2019-05-29T20:18:32.002Z,11.10
2019-05-29T20:20:58.225Z,11.20
2019-05-29T20:23:24.284Z,11.30
2019-05-29T20:25:50.378Z,11.40
2019-05-29T20:28:16.559Z,11.40
2019-05-29T20:30:42.833Z,11.40
2019-05-29T20:33:09.034Z,11.30
2019-05-29T20:35:35.208Z,11.30
2019-05-29T20:38:01.315Z,11.30
2019-05-29T20:40:27.483Z,11.30
2019-05-29T20:42:53.583Z,11.30
2019-05-29T20:45:19.669Z,11.20
2019-05-29T20:47:45.753Z,11.20
2019-05-29T20:50:12.453Z,11.20
2019-05-29T20:52:39.471Z,11.20
2019-05-29T20:55:05.796Z,11.00
2019-05-29T20:57:32.011Z,10.80
2019-05-29T20:59:58.103Z,10.70
2019-05-29T21:02:24.214Z,10.90
2019-05-29T21:04:50.300Z,11.00
2019-05-29T21:07:16.380Z,11.00
2019-05-29T21:09:43.324Z,11.10
2019-05-29T21:12:09.544Z,11.00
2019-05-29T21:14:35.672Z,10.90
2019-05-29T21:17:01.964Z,10.80
2019-05-29T21:19:28.201Z,10.80
2019-05-29T21:21:54.337Z,10.90
2019-05-29T21:24:20.527Z,11.00
2019-05-29T21:26:46.607Z,11.00
2019-05-29T21:29:12.697Z,11.10
2019-05-29T21:31:39.541Z,11.10
2019-05-29T21:34:05.772Z,11.10
2019-05-29T21:36:31.845Z,11.20
2019-05-29T21:38:57.903Z,11.20
2019-05-29T21:41:23.996Z,11.30
2019-05-29T21:43:50.068Z,11.30
2019-05-29T21:46:16.159Z,11.30
2019-05-29T21:48:43.363Z,11.20
2019-05-29T21:51:09.563Z,11.10
2019-05-29T21:53:35.644Z,10.90
2019-05-29T21:56:01.799Z,10.90
2019-05-29T21:58:28.044Z,10.90
2019-05-29T22:00:54.747Z,10.90
2019-05-29T22:03:20.918Z,10.90
2019-05-29T22:05:47.205Z,10.90
2019-05-29T22:08:13.271Z,10.90
2019-05-29T22:10:39.468Z,11.00
2019-05-29T22:13:05.637Z,11.00
2019-05-29T22:15:31.704Z,11.00
2019-05-29T22:17:59.077Z,11.00
2019-05-29T22:20:25.463Z,11.00
2019-05-29T22:22:51.548Z,11.00
2019-05-29T22:25:17.734Z,11.00
2019-05-29T22:27:43.807Z,10.90
2019-05-29T22:30:10.792Z,10.90
2019-05-29T22:32:36.860Z,11.00
2019-05-29T22:35:04.667Z,10.90
2019-05-29T22:37:30.748Z,11.00
2019-05-29T22:39:57.564Z,11.00
2019-05-29T22:42:24.015Z,11.00
2019-05-29T22:44:51.513Z,10.80
2019-05-29T22:47:17.916Z,10.60
2019-05-29T22:49:43.996Z,10.60
2019-05-29T22:52:10.068Z,10.40
2019-05-29T22:54:36.169Z,10.50
2019-05-29T22:57:02.363Z,10.50
2019-05-29T22:59:31.831Z,10.50
2019-05-29T23:01:56.596Z,10.50
2019-05-29T23:04:22.708Z,10.50
2019-05-29T23:06:51.997Z,10.50
2019-05-29T23:09:18.187Z,10.60
2019-05-29T23:11:44.251Z,10.70
2019-05-29T23:14:10.347Z,10.70
2019-05-29T23:16:36.427Z,10.70
2019-05-29T23:19:02.765Z,10.50
2019-05-29T23:21:29.012Z,10.60
2019-05-29T23:23:55.392Z,10.70
2019-05-29T23:26:21.580Z,10.70
2019-05-29T23:28:47.778Z,10.70
2019-05-29T23:31:13.960Z,10.70
2019-05-29T23:33:40.134Z,10.80
2019-05-29T23:36:06.282Z,10.80
2019-05-29T23:38:32.485Z,10.80
2019-05-29T23:40:59.535Z,10.90
2019-05-29T23:43:25.852Z,10.90
2019-05-29T23:45:53.190Z,10.90
2019-05-29T23:48:19.508Z,10.90
2019-05-29T23:50:45.583Z,10.90
2019-05-29T23:53:11.656Z,10.90
2019-05-29T23:55:37.748Z,10.90
2019-05-29T23:58:07.827Z,11.00
